sensor_id;sensor_type;location;lat;lon;timestamp;P1;durP1;ratioP1;P2;durP2;ratioP2
71562;SDS011;59391;52.504;13.438;2023-01-31T00:01:31;13.25;;;3.72;;
71562;SDS011;59391;52.504;13.438;2023-01-31T00:04:04;18.48;;;4.38;;
71562;SDS011;59391;52.504;13.438;2023-01-31T00:06:37;18.40;;;3.13;;
71562;SDS011;59391;52.504;13.438;2023-01-31T00:09:16;11.45;;;3.45;;
71562;SDS011;59391;52.504;13.438;2023-01-31T00:11:42;16.20;;;3.70;;
71562;SDS011;59391;52.504;13.438;2023-01-31T00:14:08;12.90;;;3.22;;
71562;SDS011;59391;52.504;13.438;2023-01-31T00:16:35;12.50;;;3.63;;
71562;SDS011;59391;52.504;13.438;2023-01-31T00:19:01;17.15;;;3.70;;
71562;SDS011;59391;52.504;13.438;2023-01-31T00:21:28;16.10;;;3.15;;
71562;SDS011;59391;52.504;13.438;2023-01-31T00:23:56;10.65;;;3.17;;
71562;SDS011;59391;52.504;13.438;2023-01-31T00:26:24;20.17;;;4.10;;
71562;SDS011;59391;52.504;13.438;2023-01-31T00:28:56;20.95;;;3.55;;
71562;SDS011;59391;52.504;13.438;2023-01-31T00:31:25;12.77;;;3.83;;
71562;SDS011;59391;52.504;13.438;2023-01-31T00:33:54;16.83;;;3.58;;
71562;SDS011;59391;52.504;13.438;2023-01-31T00:36:22;12.73;;;2.97;;
71562;SDS011;59391;52.504;13.438;2023-01-31T00:38:55;14.57;;;3.33;;
71562;SDS011;59391;52.504;13.438;2023-01-31T00:41:27;14.93;;;3.35;;
71562;SDS011;59391;52.504;13.438;2023-01-31T00:43:54;14.15;;;3.63;;
71562;SDS011;59391;52.504;13.438;2023-01-31T00:46:20;10.40;;;2.90;;
71562;SDS011;59391;52.504;13.438;2023-01-31T00:48:47;13.10;;;3.38;;
71562;SDS011;59391;52.504;13.438;2023-01-31T00:51:13;10.87;;;3.03;;
71562;SDS011;59391;52.504;13.438;2023-01-31T00:53:39;15.30;;;3.72;;
71562;SDS011;59391;52.504;13.438;2023-01-31T00:56:07;13.77;;;3.08;;
71562;SDS011;59391;52.504;13.438;2023-01-31T00:58:38;13.87;;;3.50;;
71562;SDS011;59391;52.504;13.438;2023-01-31T01:01:12;12.25;;;3.40;;
71562;SDS011;59391;52.504;13.438;2023-01-31T01:03:49;12.02;;;3.05;;
71562;SDS011;59391;52.504;13.438;2023-01-31T01:06:14;11.38;;;3.45;;
71562;SDS011;59391;52.504;13.438;2023-01-31T01:08:40;16.13;;;3.50;;
71562;SDS011;59391;52.504;13.438;2023-01-31T01:11:08;11.13;;;3.40;;
71562;SDS011;59391;52.504;13.438;2023-01-31T01:13:40;16.33;;;3.67;;
71562;SDS011;59391;52.504;13.438;2023-01-31T01:16:08;13.48;;;3.28;;
71562;SDS011;59391;52.504;13.438;2023-01-31T01:18:40;12.90;;;3.40;;
71562;SDS011;59391;52.504;13.438;2023-01-31T01:21:13;16.20;;;3.63;;
71562;SDS011;59391;52.504;13.438;2023-01-31T01:23:45;12.70;;;3.63;;
71562;SDS011;59391;52.504;13.438;2023-01-31T01:26:16;11.73;;;3.70;;
71562;SDS011;59391;52.504;13.438;2023-01-31T01:28:46;11.93;;;3.15;;
71562;SDS011;59391;52.504;13.438;2023-01-31T01:31:13;9.70;;;3.00;;
71562;SDS011;59391;52.504;13.438;2023-01-31T01:33:40;12.20;;;3.08;;
71562;SDS011;59391;52.504;13.438;2023-01-31T01:36:20;12.55;;;3.13;;
71562;SDS011;59391;52.504;13.438;2023-01-31T01:38:50;14.75;;;2.75;;
71562;SDS011;59391;52.504;13.438;2023-01-31T01:41:19;12.32;;;3.47;;
71562;SDS011;59391;52.504;13.438;2023-01-31T01:43:58;11.87;;;3.40;;
71562;SDS011;59391;52.504;13.438;2023-01-31T01:46:31;10.45;;;3.20;;
71562;SDS011;59391;52.504;13.438;2023-01-31T01:52:01;9.85;;;3.33;;
71562;SDS011;59391;52.504;13.438;2023-01-31T01:54:35;10.57;;;2.85;;
71562;SDS011;59391;52.504;13.438;2023-01-31T01:57:11;15.30;;;3.07;;
71562;SDS011;59391;52.504;13.438;2023-01-31T01:59:51;10.77;;;3.15;;
71562;SDS011;59391;52.504;13.438;2023-01-31T02:02:34;17.48;;;3.28;;
71562;SDS011;59391;52.504;13.438;2023-01-31T02:05:04;12.80;;;3.05;;
71562;SDS011;59391;52.504;13.438;2023-01-31T02:07:43;15.55;;;3.70;;
71562;SDS011;59391;52.504;13.438;2023-01-31T02:10:15;10.43;;;3.10;;
71562;SDS011;59391;52.504;13.438;2023-01-31T02:12:51;11.68;;;3.40;;
71562;SDS011;59391;52.504;13.438;2023-01-31T02:15:19;9.68;;;3.00;;
71562;SDS011;59391;52.504;13.438;2023-01-31T02:17:46;9.18;;;3.17;;
71562;SDS011;59391;52.504;13.438;2023-01-31T02:23:50;11.00;;;3.10;;
71562;SDS011;59391;52.504;13.438;2023-01-31T02:32:58;12.18;;;3.58;;
71562;SDS011;59391;52.504;13.438;2023-01-31T02:41:28;8.98;;;3.42;;
71562;SDS011;59391;52.504;13.438;2023-01-31T02:47:23;15.10;;;3.30;;
71562;SDS011;59391;52.504;13.438;2023-01-31T02:50:12;14.20;;;4.05;;
71562;SDS011;59391;52.504;13.438;2023-01-31T02:53:02;8.13;;;3.10;;
71562;SDS011;59391;52.504;13.438;2023-01-31T03:02:33;16.38;;;3.50;;
71562;SDS011;59391;52.504;13.438;2023-01-31T03:08:56;13.93;;;3.50;;
71562;SDS011;59391;52.504;13.438;2023-01-31T03:15:00;9.88;;;2.67;;
71562;SDS011;59391;52.504;13.438;2023-01-31T03:18:38;13.73;;;3.15;;
71562;SDS011;59391;52.504;13.438;2023-01-31T03:21:33;11.32;;;3.17;;
71562;SDS011;59391;52.504;13.438;2023-01-31T03:24:19;11.03;;;2.70;;
71562;SDS011;59391;52.504;13.438;2023-01-31T03:26:50;11.77;;;3.22;;
71562;SDS011;59391;52.504;13.438;2023-01-31T03:29:19;10.05;;;3.03;;
71562;SDS011;59391;52.504;13.438;2023-01-31T03:31:55;8.85;;;2.92;;
71562;SDS011;59391;52.504;13.438;2023-01-31T03:34:43;11.55;;;3.13;;
71562;SDS011;59391;52.504;13.438;2023-01-31T03:37:18;13.73;;;3.67;;
71562;SDS011;59391;52.504;13.438;2023-01-31T03:40:12;11.13;;;2.33;;
71562;SDS011;59391;52.504;13.438;2023-01-31T03:43:13;10.43;;;3.50;;
71562;SDS011;59391;52.504;13.438;2023-01-31T03:46:00;14.40;;;3.42;;
71562;SDS011;59391;52.504;13.438;2023-01-31T03:48:39;11.50;;;3.20;;
71562;SDS011;59391;52.504;13.438;2023-01-31T03:51:21;15.77;;;3.30;;
71562;SDS011;59391;52.504;13.438;2023-01-31T03:54:13;9.98;;;3.25;;
71562;SDS011;59391;52.504;13.438;2023-01-31T03:57:01;15.50;;;3.38;;
71562;SDS011;59391;52.504;13.438;2023-01-31T03:59:50;13.57;;;3.63;;
71562;SDS011;59391;52.504;13.438;2023-01-31T04:02:27;10.13;;;3.40;;
71562;SDS011;59391;52.504;13.438;2023-01-31T04:08:02;14.40;;;2.90;;
71562;SDS011;59391;52.504;13.438;2023-01-31T04:10:53;10.38;;;2.67;;
71562;SDS011;59391;52.504;13.438;2023-01-31T04:13:22;11.07;;;3.03;;
71562;SDS011;59391;52.504;13.438;2023-01-31T04:18:45;13.55;;;3.40;;
71562;SDS011;59391;52.504;13.438;2023-01-31T04:23:58;11.55;;;3.75;;
71562;SDS011;59391;52.504;13.438;2023-01-31T04:26:24;11.00;;;3.50;;
71562;SDS011;59391;52.504;13.438;2023-01-31T04:28:50;10.95;;;2.88;;
71562;SDS011;59391;52.504;13.438;2023-01-31T04:31:15;12.67;;;3.17;;
71562;SDS011;59391;52.504;13.438;2023-01-31T04:33:41;11.82;;;3.35;;
71562;SDS011;59391;52.504;13.438;2023-01-31T04:36:07;10.13;;;3.40;;
71562;SDS011;59391;52.504;13.438;2023-01-31T04:38:33;11.90;;;3.03;;
71562;SDS011;59391;52.504;13.438;2023-01-31T04:40:59;14.37;;;3.20;;
71562;SDS011;59391;52.504;13.438;2023-01-31T04:43:24;12.85;;;3.05;;
71562;SDS011;59391;52.504;13.438;2023-01-31T04:45:50;12.93;;;3.30;;
71562;SDS011;59391;52.504;13.438;2023-01-31T04:48:16;15.73;;;2.58;;
71562;SDS011;59391;52.504;13.438;2023-01-31T04:50:41;15.53;;;3.50;;
71562;SDS011;59391;52.504;13.438;2023-01-31T04:53:07;13.87;;;3.53;;
71562;SDS011;59391;52.504;13.438;2023-01-31T04:55:33;10.40;;;3.47;;
71562;SDS011;59391;52.504;13.438;2023-01-31T04:58:00;14.32;;;3.50;;
71562;SDS011;59391;52.504;13.438;2023-01-31T05:00:26;12.67;;;3.77;;
71562;SDS011;59391;52.504;13.438;2023-01-31T05:02:52;13.32;;;4.38;;
71562;SDS011;59391;52.504;13.438;2023-01-31T05:05:18;13.10;;;3.38;;
71562;SDS011;59391;52.504;13.438;2023-01-31T05:07:45;16.17;;;3.53;;
71562;SDS011;59391;52.504;13.438;2023-01-31T05:10:11;14.37;;;3.27;;
71562;SDS011;59391;52.504;13.438;2023-01-31T05:12:36;11.23;;;2.88;;
71562;SDS011;59391;52.504;13.438;2023-01-31T05:15:02;9.30;;;3.20;;
71562;SDS011;59391;52.504;13.438;2023-01-31T05:17:31;11.55;;;3.47;;
71562;SDS011;59391;52.504;13.438;2023-01-31T05:19:58;8.25;;;3.03;;
71562;SDS011;59391;52.504;13.438;2023-01-31T05:22:24;14.25;;;4.03;;
71562;SDS011;59391;52.504;13.438;2023-01-31T05:24:50;9.23;;;2.95;;
71562;SDS011;59391;52.504;13.438;2023-01-31T05:27:16;12.97;;;3.00;;
71562;SDS011;59391;52.504;13.438;2023-01-31T05:29:43;10.10;;;4.13;;
71562;SDS011;59391;52.504;13.438;2023-01-31T05:32:10;14.45;;;3.38;;
71562;SDS011;59391;52.504;13.438;2023-01-31T05:34:36;13.27;;;4.00;;
71562;SDS011;59391;52.504;13.438;2023-01-31T05:37:03;14.27;;;3.47;;
71562;SDS011;59391;52.504;13.438;2023-01-31T05:39:29;12.05;;;3.33;;
71562;SDS011;59391;52.504;13.438;2023-01-31T05:41:55;14.02;;;3.72;;
71562;SDS011;59391;52.504;13.438;2023-01-31T05:44:21;13.00;;;3.53;;
71562;SDS011;59391;52.504;13.438;2023-01-31T05:46:47;14.23;;;2.95;;
71562;SDS011;59391;52.504;13.438;2023-01-31T05:49:13;18.35;;;3.60;;
71562;SDS011;59391;52.504;13.438;2023-01-31T05:51:39;14.87;;;3.53;;
71562;SDS011;59391;52.504;13.438;2023-01-31T05:54:06;12.13;;;3.13;;
71562;SDS011;59391;52.504;13.438;2023-01-31T05:56:32;9.98;;;3.65;;
71562;SDS011;59391;52.504;13.438;2023-01-31T05:58:58;18.05;;;3.75;;
71562;SDS011;59391;52.504;13.438;2023-01-31T06:01:26;13.07;;;3.13;;
71562;SDS011;59391;52.504;13.438;2023-01-31T06:03:53;11.80;;;3.33;;
71562;SDS011;59391;52.504;13.438;2023-01-31T06:06:18;18.55;;;4.03;;
71562;SDS011;59391;52.504;13.438;2023-01-31T06:08:45;17.15;;;4.28;;
71562;SDS011;59391;52.504;13.438;2023-01-31T06:11:11;9.13;;;3.43;;
71562;SDS011;59391;52.504;13.438;2023-01-31T06:13:38;13.65;;;3.80;;
71562;SDS011;59391;52.504;13.438;2023-01-31T06:16:08;20.70;;;5.15;;
71562;SDS011;59391;52.504;13.438;2023-01-31T06:18:35;13.18;;;3.58;;
71562;SDS011;59391;52.504;13.438;2023-01-31T06:21:01;8.40;;;3.17;;
71562;SDS011;59391;52.504;13.438;2023-01-31T06:23:26;11.95;;;4.00;;
71562;SDS011;59391;52.504;13.438;2023-01-31T06:25:53;14.05;;;3.58;;
71562;SDS011;59391;52.504;13.438;2023-01-31T06:28:19;10.83;;;3.63;;
71562;SDS011;59391;52.504;13.438;2023-01-31T06:30:46;10.63;;;2.97;;
71562;SDS011;59391;52.504;13.438;2023-01-31T06:33:11;15.98;;;3.55;;
71562;SDS011;59391;52.504;13.438;2023-01-31T06:35:38;14.30;;;3.28;;
71562;SDS011;59391;52.504;13.438;2023-01-31T06:38:04;14.13;;;3.95;;
71562;SDS011;59391;52.504;13.438;2023-01-31T06:40:31;11.75;;;3.00;;
71562;SDS011;59391;52.504;13.438;2023-01-31T06:42:59;16.25;;;3.88;;
71562;SDS011;59391;52.504;13.438;2023-01-31T06:45:25;14.50;;;4.05;;
71562;SDS011;59391;52.504;13.438;2023-01-31T06:47:51;15.60;;;3.27;;
71562;SDS011;59391;52.504;13.438;2023-01-31T06:50:17;15.13;;;3.50;;
71562;SDS011;59391;52.504;13.438;2023-01-31T06:52:42;10.03;;;3.00;;
71562;SDS011;59391;52.504;13.438;2023-01-31T06:55:09;13.73;;;3.50;;
71562;SDS011;59391;52.504;13.438;2023-01-31T06:57:35;15.83;;;3.70;;
71562;SDS011;59391;52.504;13.438;2023-01-31T07:00:09;13.65;;;3.45;;
71562;SDS011;59391;52.504;13.438;2023-01-31T07:02:36;14.00;;;3.55;;
71562;SDS011;59391;52.504;13.438;2023-01-31T07:05:01;14.43;;;3.80;;
71562;SDS011;59391;52.504;13.438;2023-01-31T07:07:27;11.70;;;3.40;;
71562;SDS011;59391;52.504;13.438;2023-01-31T07:09:53;10.60;;;3.28;;
71562;SDS011;59391;52.504;13.438;2023-01-31T07:12:18;9.07;;;2.93;;
71562;SDS011;59391;52.504;13.438;2023-01-31T07:14:44;11.40;;;3.20;;
71562;SDS011;59391;52.504;13.438;2023-01-31T07:17:09;12.77;;;3.20;;
71562;SDS011;59391;52.504;13.438;2023-01-31T07:19:35;10.60;;;3.47;;
71562;SDS011;59391;52.504;13.438;2023-01-31T07:22:01;11.70;;;3.53;;
71562;SDS011;59391;52.504;13.438;2023-01-31T07:24:26;10.82;;;3.67;;
71562;SDS011;59391;52.504;13.438;2023-01-31T07:26:52;11.47;;;3.90;;
71562;SDS011;59391;52.504;13.438;2023-01-31T07:29:18;10.77;;;4.05;;
71562;SDS011;59391;52.504;13.438;2023-01-31T07:31:43;15.67;;;4.67;;
71562;SDS011;59391;52.504;13.438;2023-01-31T07:34:09;10.80;;;3.75;;
71562;SDS011;59391;52.504;13.438;2023-01-31T07:36:35;14.53;;;3.43;;
71562;SDS011;59391;52.504;13.438;2023-01-31T07:39:00;11.80;;;3.65;;
71562;SDS011;59391;52.504;13.438;2023-01-31T07:41:26;12.97;;;3.40;;
71562;SDS011;59391;52.504;13.438;2023-01-31T07:43:52;11.73;;;4.10;;
71562;SDS011;59391;52.504;13.438;2023-01-31T07:46:17;15.75;;;4.45;;
71562;SDS011;59391;52.504;13.438;2023-01-31T07:48:43;16.65;;;3.75;;
71562;SDS011;59391;52.504;13.438;2023-01-31T07:51:09;9.67;;;3.30;;
71562;SDS011;59391;52.504;13.438;2023-01-31T07:53:36;11.85;;;3.40;;
71562;SDS011;59391;52.504;13.438;2023-01-31T07:58:37;14.43;;;3.83;;
71562;SDS011;59391;52.504;13.438;2023-01-31T08:01:04;9.95;;;3.53;;
71562;SDS011;59391;52.504;13.438;2023-01-31T08:03:48;13.50;;;4.18;;
71562;SDS011;59391;52.504;13.438;2023-01-31T08:06:14;13.88;;;4.57;;
71562;SDS011;59391;52.504;13.438;2023-01-31T08:08:41;13.63;;;4.10;;
71562;SDS011;59391;52.504;13.438;2023-01-31T08:11:08;10.38;;;3.63;;
71562;SDS011;59391;52.504;13.438;2023-01-31T08:13:34;14.38;;;4.15;;
71562;SDS011;59391;52.504;13.438;2023-01-31T08:16:01;9.73;;;4.10;;
71562;SDS011;59391;52.504;13.438;2023-01-31T08:18:29;13.25;;;4.38;;
71562;SDS011;59391;52.504;13.438;2023-01-31T08:20:55;12.40;;;3.00;;
71562;SDS011;59391;52.504;13.438;2023-01-31T08:23:22;15.07;;;4.10;;
71562;SDS011;59391;52.504;13.438;2023-01-31T08:25:48;10.38;;;3.83;;
71562;SDS011;59391;52.504;13.438;2023-01-31T08:28:14;11.50;;;3.40;;
71562;SDS011;59391;52.504;13.438;2023-01-31T08:30:40;11.02;;;3.80;;
71562;SDS011;59391;52.504;13.438;2023-01-31T08:33:08;15.60;;;3.72;;
71562;SDS011;59391;52.504;13.438;2023-01-31T08:35:35;9.07;;;2.80;;
71562;SDS011;59391;52.504;13.438;2023-01-31T08:38:02;10.85;;;3.30;;
71562;SDS011;59391;52.504;13.438;2023-01-31T08:40:29;12.33;;;3.73;;
71562;SDS011;59391;52.504;13.438;2023-01-31T08:42:56;14.13;;;3.67;;
71562;SDS011;59391;52.504;13.438;2023-01-31T08:45:27;11.77;;;4.10;;
71562;SDS011;59391;52.504;13.438;2023-01-31T08:47:54;12.27;;;4.03;;
71562;SDS011;59391;52.504;13.438;2023-01-31T08:50:28;10.88;;;4.20;;
71562;SDS011;59391;52.504;13.438;2023-01-31T08:52:57;11.87;;;4.10;;
71562;SDS011;59391;52.504;13.438;2023-01-31T08:55:29;14.75;;;4.05;;
71562;SDS011;59391;52.504;13.438;2023-01-31T08:57:58;14.18;;;4.43;;
71562;SDS011;59391;52.504;13.438;2023-01-31T09:00:25;12.35;;;4.13;;
71562;SDS011;59391;52.504;13.438;2023-01-31T09:02:53;11.27;;;4.65;;
71562;SDS011;59391;52.504;13.438;2023-01-31T09:05:24;13.93;;;4.20;;
71562;SDS011;59391;52.504;13.438;2023-01-31T09:07:52;11.82;;;3.70;;
71562;SDS011;59391;52.504;13.438;2023-01-31T09:10:19;10.88;;;3.70;;
71562;SDS011;59391;52.504;13.438;2023-01-31T09:12:46;12.05;;;4.18;;
71562;SDS011;59391;52.504;13.438;2023-01-31T09:15:12;15.70;;;4.50;;
71562;SDS011;59391;52.504;13.438;2023-01-31T09:17:39;13.90;;;3.97;;
71562;SDS011;59391;52.504;13.438;2023-01-31T09:20:05;10.70;;;3.50;;
71562;SDS011;59391;52.504;13.438;2023-01-31T09:22:34;16.75;;;4.72;;
71562;SDS011;59391;52.504;13.438;2023-01-31T09:25:00;10.73;;;3.65;;
71562;SDS011;59391;52.504;13.438;2023-01-31T09:27:27;16.15;;;4.50;;
71562;SDS011;59391;52.504;13.438;2023-01-31T09:29:53;11.23;;;3.60;;
71562;SDS011;59391;52.504;13.438;2023-01-31T09:32:20;19.95;;;5.15;;
71562;SDS011;59391;52.504;13.438;2023-01-31T09:34:46;12.75;;;4.22;;
71562;SDS011;59391;52.504;13.438;2023-01-31T09:37:15;15.18;;;4.60;;
71562;SDS011;59391;52.504;13.438;2023-01-31T09:39:41;14.87;;;7.13;;
71562;SDS011;59391;52.504;13.438;2023-01-31T09:42:21;11.38;;;4.13;;
71562;SDS011;59391;52.504;13.438;2023-01-31T09:44:56;15.35;;;5.03;;
71562;SDS011;59391;52.504;13.438;2023-01-31T09:47:49;15.05;;;4.65;;
71562;SDS011;59391;52.504;13.438;2023-01-31T09:50:22;13.07;;;4.97;;
71562;SDS011;59391;52.504;13.438;2023-01-31T09:53:13;9.82;;;3.95;;
71562;SDS011;59391;52.504;13.438;2023-01-31T09:59:03;10.85;;;4.05;;
71562;SDS011;59391;52.504;13.438;2023-01-31T10:01:58;13.85;;;4.57;;
71562;SDS011;59391;52.504;13.438;2023-01-31T10:11:02;12.85;;;4.10;;
71562;SDS011;59391;52.504;13.438;2023-01-31T10:13:38;18.65;;;4.60;;
71562;SDS011;59391;52.504;13.438;2023-01-31T10:18:55;14.43;;;4.03;;
71562;SDS011;59391;52.504;13.438;2023-01-31T10:21:31;11.98;;;3.22;;
71562;SDS011;59391;52.504;13.438;2023-01-31T10:24:27;18.33;;;3.58;;
71562;SDS011;59391;52.504;13.438;2023-01-31T10:27:25;15.02;;;4.28;;
71562;SDS011;59391;52.504;13.438;2023-01-31T10:40:13;12.20;;;3.50;;
71562;SDS011;59391;52.504;13.438;2023-01-31T11:03:57;13.80;;;4.78;;
71562;SDS011;59391;52.504;13.438;2023-01-31T11:07:01;9.10;;;3.53;;
71562;SDS011;59391;52.504;13.438;2023-01-31T11:09:29;14.30;;;4.10;;
71562;SDS011;59391;52.504;13.438;2023-01-31T11:12:07;15.45;;;4.82;;
71562;SDS011;59391;52.504;13.438;2023-01-31T11:15:27;14.20;;;3.92;;
71562;SDS011;59391;52.504;13.438;2023-01-31T11:17:49;11.75;;;4.15;;
71562;SDS011;59391;52.504;13.438;2023-01-31T11:20:26;10.10;;;3.83;;
71562;SDS011;59391;52.504;13.438;2023-01-31T11:22:55;18.17;;;4.78;;
71562;SDS011;59391;52.504;13.438;2023-01-31T11:25:23;17.20;;;4.15;;
71562;SDS011;59391;52.504;13.438;2023-01-31T11:27:53;15.13;;;4.90;;
71562;SDS011;59391;52.504;13.438;2023-01-31T11:36:25;12.20;;;4.80;;
71562;SDS011;59391;52.504;13.438;2023-01-31T11:54:02;15.20;;;4.38;;
71562;SDS011;59391;52.504;13.438;2023-01-31T12:07:23;15.10;;;5.60;;
71562;SDS011;59391;52.504;13.438;2023-01-31T12:09:59;15.75;;;4.53;;
71562;SDS011;59391;52.504;13.438;2023-01-31T12:12:28;13.10;;;5.80;;
71562;SDS011;59391;52.504;13.438;2023-01-31T12:17:56;13.38;;;5.70;;
71562;SDS011;59391;52.504;13.438;2023-01-31T12:20:51;13.87;;;4.20;;
71562;SDS011;59391;52.504;13.438;2023-01-31T12:40:42;11.55;;;4.13;;
71562;SDS011;59391;52.504;13.438;2023-01-31T12:46:46;11.38;;;5.10;;
71562;SDS011;59391;52.504;13.438;2023-01-31T12:53:18;11.73;;;5.43;;
71562;SDS011;59391;52.504;13.438;2023-01-31T12:59:55;12.82;;;5.55;;
71562;SDS011;59391;52.504;13.438;2023-01-31T13:05:55;13.32;;;5.75;;
71562;SDS011;59391;52.504;13.438;2023-01-31T13:08:26;15.13;;;6.53;;
71562;SDS011;59391;52.504;13.438;2023-01-31T13:13:32;20.08;;;8.05;;
71562;SDS011;59391;52.504;13.438;2023-01-31T13:16:20;18.13;;;6.35;;
71562;SDS011;59391;52.504;13.438;2023-01-31T13:18:53;15.40;;;6.80;;
71562;SDS011;59391;52.504;13.438;2023-01-31T13:21:25;9.60;;;5.30;;
71562;SDS011;59391;52.504;13.438;2023-01-31T13:24:08;12.60;;;6.18;;
71562;SDS011;59391;52.504;13.438;2023-01-31T13:27:03;19.77;;;8.05;;
71562;SDS011;59391;52.504;13.438;2023-01-31T13:29:52;10.35;;;5.47;;
71562;SDS011;59391;52.504;13.438;2023-01-31T13:32:33;17.40;;;6.53;;
71562;SDS011;59391;52.504;13.438;2023-01-31T13:35:16;11.70;;;5.60;;
71562;SDS011;59391;52.504;13.438;2023-01-31T13:37:52;17.15;;;7.80;;
71562;SDS011;59391;52.504;13.438;2023-01-31T13:40:25;15.23;;;6.53;;
71562;SDS011;59391;52.504;13.438;2023-01-31T13:42:59;13.52;;;6.20;;
71562;SDS011;59391;52.504;13.438;2023-01-31T13:45:37;15.60;;;6.20;;
71562;SDS011;59391;52.504;13.438;2023-01-31T13:48:25;12.40;;;6.83;;
71562;SDS011;59391;52.504;13.438;2023-01-31T13:51:10;12.40;;;5.57;;
71562;SDS011;59391;52.504;13.438;2023-01-31T13:53:48;10.77;;;5.60;;
71562;SDS011;59391;52.504;13.438;2023-01-31T13:56:44;11.27;;;6.38;;
71562;SDS011;59391;52.504;13.438;2023-01-31T13:59:21;15.80;;;7.88;;
71562;SDS011;59391;52.504;13.438;2023-01-31T14:01:55;14.27;;;7.83;;
71562;SDS011;59391;52.504;13.438;2023-01-31T14:04:32;15.05;;;7.88;;
71562;SDS011;59391;52.504;13.438;2023-01-31T14:09:30;14.98;;;7.97;;
71562;SDS011;59391;52.504;13.438;2023-01-31T14:14:41;14.47;;;6.93;;
71562;SDS011;59391;52.504;13.438;2023-01-31T14:17:14;14.23;;;7.35;;
71562;SDS011;59391;52.504;13.438;2023-01-31T14:19:59;12.70;;;7.47;;
71562;SDS011;59391;52.504;13.438;2023-01-31T14:22:34;14.55;;;7.60;;
71562;SDS011;59391;52.504;13.438;2023-01-31T14:27:38;8.63;;;5.07;;
71562;SDS011;59391;52.504;13.438;2023-01-31T14:30:22;12.70;;;6.88;;
71562;SDS011;59391;52.504;13.438;2023-01-31T14:50:17;11.70;;;7.15;;
71562;SDS011;59391;52.504;13.438;2023-01-31T14:59:17;13.30;;;6.60;;
71562;SDS011;59391;52.504;13.438;2023-01-31T15:01:52;14.77;;;7.85;;
71562;SDS011;59391;52.504;13.438;2023-01-31T15:04:21;10.80;;;5.65;;
71562;SDS011;59391;52.504;13.438;2023-01-31T15:06:50;11.80;;;6.65;;
71562;SDS011;59391;52.504;13.438;2023-01-31T15:11:52;12.80;;;7.53;;
71562;SDS011;59391;52.504;13.438;2023-01-31T15:17:13;14.25;;;7.70;;
71562;SDS011;59391;52.504;13.438;2023-01-31T15:19:53;15.80;;;8.20;;
71562;SDS011;59391;52.504;13.438;2023-01-31T15:22:37;14.97;;;8.40;;
71562;SDS011;59391;52.504;13.438;2023-01-31T15:27:57;12.15;;;7.53;;
71562;SDS011;59391;52.504;13.438;2023-01-31T15:30:25;15.73;;;8.82;;
71562;SDS011;59391;52.504;13.438;2023-01-31T15:32:58;12.30;;;7.55;;
71562;SDS011;59391;52.504;13.438;2023-01-31T15:36:03;13.27;;;8.17;;
71562;SDS011;59391;52.504;13.438;2023-01-31T15:38:50;15.93;;;8.30;;
71562;SDS011;59391;52.504;13.438;2023-01-31T15:41:21;14.35;;;7.20;;
71562;SDS011;59391;52.504;13.438;2023-01-31T15:44:24;8.80;;;6.03;;
71562;SDS011;59391;52.504;13.438;2023-01-31T15:46:53;13.80;;;7.88;;
71562;SDS011;59391;52.504;13.438;2023-01-31T15:49:28;13.80;;;8.50;;
71562;SDS011;59391;52.504;13.438;2023-01-31T15:54:51;12.90;;;8.05;;
71562;SDS011;59391;52.504;13.438;2023-01-31T15:57:24;12.27;;;8.52;;
71562;SDS011;59391;52.504;13.438;2023-01-31T16:00:03;15.40;;;7.95;;
71562;SDS011;59391;52.504;13.438;2023-01-31T16:02:31;12.70;;;8.67;;
71562;SDS011;59391;52.504;13.438;2023-01-31T16:04:57;15.00;;;8.27;;
71562;SDS011;59391;52.504;13.438;2023-01-31T16:07:24;12.20;;;7.50;;
71562;SDS011;59391;52.504;13.438;2023-01-31T16:09:57;15.27;;;9.07;;
71562;SDS011;59391;52.504;13.438;2023-01-31T16:12:26;12.98;;;7.97;;
71562;SDS011;59391;52.504;13.438;2023-01-31T16:14:55;13.27;;;8.93;;
71562;SDS011;59391;52.504;13.438;2023-01-31T16:17:29;15.38;;;8.13;;
71562;SDS011;59391;52.504;13.438;2023-01-31T16:19:59;14.07;;;8.82;;
71562;SDS011;59391;52.504;13.438;2023-01-31T16:22:26;13.80;;;8.48;;
71562;SDS011;59391;52.504;13.438;2023-01-31T16:24:57;13.40;;;8.68;;
71562;SDS011;59391;52.504;13.438;2023-01-31T16:27:26;17.02;;;9.50;;
71562;SDS011;59391;52.504;13.438;2023-01-31T16:54:53;14.47;;;8.67;;
71562;SDS011;59391;52.504;13.438;2023-01-31T16:59:58;17.27;;;9.32;;
71562;SDS011;59391;52.504;13.438;2023-01-31T17:02:54;19.55;;;11.50;;
71562;SDS011;59391;52.504;13.438;2023-01-31T17:05:38;17.40;;;10.23;;
71562;SDS011;59391;52.504;13.438;2023-01-31T17:08:15;19.83;;;10.97;;
71562;SDS011;59391;52.504;13.438;2023-01-31T17:10:44;16.08;;;10.25;;
71562;SDS011;59391;52.504;13.438;2023-01-31T17:15:49;18.63;;;11.00;;
71562;SDS011;59391;52.504;13.438;2023-01-31T17:18:15;18.95;;;11.20;;
71562;SDS011;59391;52.504;13.438;2023-01-31T17:20:54;15.07;;;8.20;;
71562;SDS011;59391;52.504;13.438;2023-01-31T17:23:46;13.85;;;8.48;;
71562;SDS011;59391;52.504;13.438;2023-01-31T17:26:20;15.30;;;9.70;;
71562;SDS011;59391;52.504;13.438;2023-01-31T17:29:30;15.35;;;9.13;;
71562;SDS011;59391;52.504;13.438;2023-01-31T17:39:31;18.33;;;10.27;;
71562;SDS011;59391;52.504;13.438;2023-01-31T17:42:01;16.73;;;8.68;;
71562;SDS011;59391;52.504;13.438;2023-01-31T17:44:42;19.90;;;11.23;;
71562;SDS011;59391;52.504;13.438;2023-01-31T17:47:15;20.23;;;10.73;;
71562;SDS011;59391;52.504;13.438;2023-01-31T17:49:47;19.13;;;10.73;;
71562;SDS011;59391;52.504;13.438;2023-01-31T17:52:18;17.05;;;9.45;;
71562;SDS011;59391;52.504;13.438;2023-01-31T17:54:50;19.67;;;11.32;;
71562;SDS011;59391;52.504;13.438;2023-01-31T17:57:37;16.75;;;10.95;;
71562;SDS011;59391;52.504;13.438;2023-01-31T18:00:03;19.50;;;10.80;;
71562;SDS011;59391;52.504;13.438;2023-01-31T18:02:32;19.10;;;10.97;;
71562;SDS011;59391;52.504;13.438;2023-01-31T18:05:01;19.33;;;11.55;;
71562;SDS011;59391;52.504;13.438;2023-01-31T18:07:36;23.25;;;11.35;;
71562;SDS011;59391;52.504;13.438;2023-01-31T18:10:07;20.25;;;11.27;;
71562;SDS011;59391;52.504;13.438;2023-01-31T18:12:34;18.67;;;10.88;;
71562;SDS011;59391;52.504;13.438;2023-01-31T18:15:03;19.93;;;10.00;;
71562;SDS011;59391;52.504;13.438;2023-01-31T18:17:35;18.60;;;9.90;;
71562;SDS011;59391;52.504;13.438;2023-01-31T18:20:09;18.27;;;10.10;;
71562;SDS011;59391;52.504;13.438;2023-01-31T18:22:49;17.30;;;9.55;;
71562;SDS011;59391;52.504;13.438;2023-01-31T18:25:38;15.90;;;8.90;;
71562;SDS011;59391;52.504;13.438;2023-01-31T18:32:26;16.75;;;9.30;;
71562;SDS011;59391;52.504;13.438;2023-01-31T18:42:00;14.40;;;8.23;;
71562;SDS011;59391;52.504;13.438;2023-01-31T18:47:42;16.55;;;9.13;;
71562;SDS011;59391;52.504;13.438;2023-01-31T18:50:09;15.45;;;8.98;;
71562;SDS011;59391;52.504;13.438;2023-01-31T18:52:44;13.73;;;8.32;;
71562;SDS011;59391;52.504;13.438;2023-01-31T18:55:16;14.30;;;8.48;;
71562;SDS011;59391;52.504;13.438;2023-01-31T18:57:48;14.67;;;8.57;;
71562;SDS011;59391;52.504;13.438;2023-01-31T19:00:45;13.70;;;8.52;;
71562;SDS011;59391;52.504;13.438;2023-01-31T19:03:21;14.93;;;8.38;;
71562;SDS011;59391;52.504;13.438;2023-01-31T19:05:53;13.15;;;7.85;;
71562;SDS011;59391;52.504;13.438;2023-01-31T19:08:56;14.02;;;7.85;;